CheckWX is a tool to help pilots better visualize weather data.  It is not intended as a substitute for an official pre-flight weather briefing.

10:44:02 UTC

KDVL TAF
Devils Lake Regional Airport
Devils Lake, North Dakota, USA
KDVL 180956Z 1810/1906 VRB03KT 1SM BR BKN030 FM181300 32008KT P6SM BKN070 FM182300 VRB06KT P6SM SCT060

Apr-18@
10:00 UTC

Apr-18 @ 10:00 UTC

Apr-18@
13:00 UTC

Apr-18 @ 13:00 UTC

KDVL 180956Z 1810/1906 VRB03KT 1SM BR BKN030
Wind
  • Variable at 3 KTS
Conditions
Mist
Cloud Levels
  • Broken at 3,000' AGL

Apr-18@
13:00 UTC

Apr-18 @ 13:00 UTC

Apr-18@
23:00 UTC

Apr-18 @ 23:00 UTC

FM181300 32008KT P6SM BKN070

From

From Standard forecast or significant change

Wind
  • 320° at 8 KTS
Cloud Levels
  • Broken at 7,000' AGL

Apr-18@
23:00 UTC

Apr-18 @ 23:00 UTC

Apr-19@
06:00 UTC

Apr-19 @ 06:00 UTC

FM182300 VRB06KT P6SM SCT060

From

From Standard forecast or significant change

Wind
  • Variable at 6 KTS
Cloud Levels
  • Scattered at 6,000' AGL